sensor_id;sensor_type;location;lat;lon;timestamp;pressure;altitude;pressure_sealevel;temperature;humidity
5595;BME280;1003;48.002;7.788;2022-10-15T00:01:07;98210.72;;;16.31;100.00
5595;BME280;1003;48.002;7.788;2022-10-15T00:03:38;98212.44;;;16.31;100.00
5595;BME280;1003;48.002;7.788;2022-10-15T00:06:07;98207.28;;;16.32;100.00
5595;BME280;1003;48.002;7.788;2022-10-15T00:08:36;98220.78;;;16.33;100.00
5595;BME280;1003;48.002;7.788;2022-10-15T00:11:09;98216.16;;;16.41;100.00
5595;BME280;1003;48.002;7.788;2022-10-15T00:13:37;98211.38;;;16.35;100.00
5595;BME280;1003;48.002;7.788;2022-10-15T00:16:08;98210.66;;;16.33;100.00
5595;BME280;1003;48.002;7.788;2022-10-15T00:18:38;98210.25;;;16.40;100.00
5595;BME280;1003;48.002;7.788;2022-10-15T00:21:07;98213.59;;;16.41;100.00
5595;BME280;1003;48.002;7.788;2022-10-15T00:23:34;98222.19;;;16.38;100.00
5595;BME280;1003;48.002;7.788;2022-10-15T00:26:05;98214.69;;;16.37;100.00
5595;BME280;1003;48.002;7.788;2022-10-15T00:28:32;98225.47;;;16.40;100.00
5595;BME280;1003;48.002;7.788;2022-10-15T00:31:04;98224.00;;;16.36;100.00
5595;BME280;1003;48.002;7.788;2022-10-15T00:33:32;98226.06;;;16.45;100.00
5595;BME280;1003;48.002;7.788;2022-10-15T00:36:04;98223.53;;;16.45;100.00
5595;BME280;1003;48.002;7.788;2022-10-15T00:38:32;98226.97;;;16.44;100.00
5595;BME280;1003;48.002;7.788;2022-10-15T00:40:59;98221.81;;;16.46;100.00
5595;BME280;1003;48.002;7.788;2022-10-15T00:43:43;98225.03;;;16.49;100.00
5595;BME280;1003;48.002;7.788;2022-10-15T00:46:21;98231.81;;;16.49;100.00
5595;BME280;1003;48.002;7.788;2022-10-15T00:48:55;98224.13;;;16.50;100.00
5595;BME280;1003;48.002;7.788;2022-10-15T00:51:30;98228.59;;;16.45;100.00
5595;BME280;1003;48.002;7.788;2022-10-15T00:54:00;98236.22;;;16.45;100.00
5595;BME280;1003;48.002;7.788;2022-10-15T00:56:30;98234.34;;;16.49;100.00
5595;BME280;1003;48.002;7.788;2022-10-15T00:58:59;98228.28;;;16.51;100.00
5595;BME280;1003;48.002;7.788;2022-10-15T01:01:26;98236.22;;;16.45;100.00
5595;BME280;1003;48.002;7.788;2022-10-15T01:03:55;98233.69;;;16.45;100.00
5595;BME280;1003;48.002;7.788;2022-10-15T01:06:25;98229.69;;;16.41;100.00
5595;BME280;1003;48.002;7.788;2022-10-15T01:08:52;98227.34;;;16.37;100.00
5595;BME280;1003;48.002;7.788;2022-10-15T01:11:35;98228.81;;;16.41;100.00
5595;BME280;1003;48.002;7.788;2022-10-15T01:14:20;98229.59;;;16.43;100.00
5595;BME280;1003;48.002;7.788;2022-10-15T01:17:00;98230.25;;;16.46;100.00
5595;BME280;1003;48.002;7.788;2022-10-15T01:20:12;98228.09;;;16.39;100.00
5595;BME280;1003;48.002;7.788;2022-10-15T01:22:59;98233.25;;;16.37;100.00
5595;BME280;1003;48.002;7.788;2022-10-15T01:25:47;98234.81;;;16.40;100.00
5595;BME280;1003;48.002;7.788;2022-10-15T01:28:35;98226.69;;;16.33;100.00
5595;BME280;1003;48.002;7.788;2022-10-15T01:31:20;98241.88;;;16.33;100.00
5595;BME280;1003;48.002;7.788;2022-10-15T01:34:00;98238.25;;;16.39;100.00
5595;BME280;1003;48.002;7.788;2022-10-15T01:36:34;98245.63;;;16.43;100.00
5595;BME280;1003;48.002;7.788;2022-10-15T01:39:11;98236.59;;;16.38;100.00
5595;BME280;1003;48.002;7.788;2022-10-15T01:41:45;98232.47;;;16.35;100.00
5595;BME280;1003;48.002;7.788;2022-10-15T01:44:21;98237.34;;;16.40;100.00
5595;BME280;1003;48.002;7.788;2022-10-15T01:46:57;98229.72;;;16.40;100.00
5595;BME280;1003;48.002;7.788;2022-10-15T01:49:31;98229.59;;;16.43;100.00
5595;BME280;1003;48.002;7.788;2022-10-15T01:52:09;98228.78;;;16.42;100.00
5595;BME280;1003;48.002;7.788;2022-10-15T01:54:39;98228.09;;;16.39;100.00
5595;BME280;1003;48.002;7.788;2022-10-15T01:57:08;98230.41;;;16.43;100.00
5595;BME280;1003;48.002;7.788;2022-10-15T01:59:36;98233.31;;;16.36;100.00
5595;BME280;1003;48.002;7.788;2022-10-15T02:02:05;98231.63;;;16.36;100.00
5595;BME280;1003;48.002;7.788;2022-10-15T02:04:32;98242.63;;;16.35;100.00
5595;BME280;1003;48.002;7.788;2022-10-15T02:07:05;98238.25;;;16.39;100.00
5595;BME280;1003;48.002;7.788;2022-10-15T02:09:43;98233.97;;;16.39;100.00
5595;BME280;1003;48.002;7.788;2022-10-15T02:12:30;98235.78;;;16.37;100.00
5595;BME280;1003;48.002;7.788;2022-10-15T02:15:08;98226.53;;;16.36;100.00
5595;BME280;1003;48.002;7.788;2022-10-15T02:17:44;98230.03;;;16.34;100.00
5595;BME280;1003;48.002;7.788;2022-10-15T02:20:15;98233.59;;;16.30;100.00
5595;BME280;1003;48.002;7.788;2022-10-15T02:22:52;98236.50;;;16.39;100.00
5595;BME280;1003;48.002;7.788;2022-10-15T02:25:24;98240.69;;;16.40;100.00
5595;BME280;1003;48.002;7.788;2022-10-15T02:27:55;98241.00;;;16.34;100.00
5595;BME280;1003;48.002;7.788;2022-10-15T02:30:26;98236.22;;;16.45;100.00
5595;BME280;1003;48.002;7.788;2022-10-15T02:32:58;98230.25;;;16.46;100.00
5595;BME280;1003;48.002;7.788;2022-10-15T02:35:26;98235.78;;;16.37;100.00
5595;BME280;1003;48.002;7.788;2022-10-15T02:37:56;98242.50;;;16.38;100.00
5595;BME280;1003;48.002;7.788;2022-10-15T02:40:31;98245.41;;;16.31;100.00
5595;BME280;1003;48.002;7.788;2022-10-15T02:43:04;98245.47;;;16.29;100.00
5595;BME280;1003;48.002;7.788;2022-10-15T02:45:31;98248.00;;;16.29;100.00
5595;BME280;1003;48.002;7.788;2022-10-15T02:47:59;98248.09;;;16.27;100.00
5595;BME280;1003;48.002;7.788;2022-10-15T02:50:26;98242.19;;;16.27;100.00
5595;BME280;1003;48.002;7.788;2022-10-15T02:52:53;98243.75;;;16.30;100.00
5595;BME280;1003;48.002;7.788;2022-10-15T02:55:20;98247.88;;;16.32;100.00
5595;BME280;1003;48.002;7.788;2022-10-15T02:57:47;98241.97;;;16.32;100.00
5595;BME280;1003;48.002;7.788;2022-10-15T03:00:15;98240.84;;;16.37;100.00
5595;BME280;1003;48.002;7.788;2022-10-15T03:02:43;98236.22;;;16.28;100.00
5595;BME280;1003;48.002;7.788;2022-10-15T03:05:11;98243.75;;;16.30;100.00
5595;BME280;1003;48.002;7.788;2022-10-15T03:07:38;98239.75;;;16.25;100.00
5595;BME280;1003;48.002;7.788;2022-10-15T03:10:06;98241.22;;;16.30;100.00
5595;BME280;1003;48.002;7.788;2022-10-15T03:12:34;98238.84;;;16.26;100.00
5595;BME280;1003;48.002;7.788;2022-10-15T03:15:01;98237.47;;;16.19;100.00
5595;BME280;1003;48.002;7.788;2022-10-15T03:17:28;98253.66;;;16.17;100.00
5595;BME280;1003;48.002;7.788;2022-10-15T03:19:55;98237.72;;;16.15;100.00
5595;BME280;1003;48.002;7.788;2022-10-15T03:22:23;98240.84;;;16.20;100.00
5595;BME280;1003;48.002;7.788;2022-10-15T03:24:50;98242.63;;;16.18;100.00
5595;BME280;1003;48.002;7.788;2022-10-15T03:27:17;98243.81;;;16.11;100.00
5595;BME280;1003;48.002;7.788;2022-10-15T03:29:44;98243.59;;;16.15;100.00
5595;BME280;1003;48.002;7.788;2022-10-15T03:32:11;98242.78;;;16.15;100.00
5595;BME280;1003;48.002;7.788;2022-10-15T03:34:38;98248.06;;;16.10;100.00
5595;BME280;1003;48.002;7.788;2022-10-15T03:37:05;98236.56;;;16.03;100.00
5595;BME280;1003;48.002;7.788;2022-10-15T03:39:34;98246.78;;;16.01;100.00
5595;BME280;1003;48.002;7.788;2022-10-15T03:42:01;98241.59;;;16.05;100.00
5595;BME280;1003;48.002;7.788;2022-10-15T03:44:28;98235.97;;;15.98;100.00
5595;BME280;1003;48.002;7.788;2022-10-15T03:46:55;98240.69;;;16.06;100.00
5595;BME280;1003;48.002;7.788;2022-10-15T03:49:22;98232.34;;;16.04;100.00
5595;BME280;1003;48.002;7.788;2022-10-15T03:51:49;98238.75;;;16.11;100.00
5595;BME280;1003;48.002;7.788;2022-10-15T03:54:16;98232.03;;;16.10;100.00
5595;BME280;1003;48.002;7.788;2022-10-15T03:56:45;98233.00;;;16.07;100.00
5595;BME280;1003;48.002;7.788;2022-10-15T03:59:12;98236.72;;;16.00;100.00
5595;BME280;1003;48.002;7.788;2022-10-15T04:01:39;98237.69;;;15.97;100.00
5595;BME280;1003;48.002;7.788;2022-10-15T04:04:06;98228.00;;;16.06;100.00
5595;BME280;1003;48.002;7.788;2022-10-15T04:06:33;98230.88;;;15.98;100.00
5595;BME280;1003;48.002;7.788;2022-10-15T04:09:00;98235.09;;;15.99;100.00
5595;BME280;1003;48.002;7.788;2022-10-15T04:11:27;98224.78;;;16.02;100.00
5595;BME280;1003;48.002;7.788;2022-10-15T04:13:55;98227.69;;;15.94;100.00
5595;BME280;1003;48.002;7.788;2022-10-15T04:16:22;98230.97;;;15.96;100.00
5595;BME280;1003;48.002;7.788;2022-10-15T04:18:49;98228.91;;;16.05;100.00
5595;BME280;1003;48.002;7.788;2022-10-15T04:21:16;98236.66;;;16.01;100.00
5595;BME280;1003;48.002;7.788;2022-10-15T04:23:43;98236.84;;;15.97;100.00
5595;BME280;1003;48.002;7.788;2022-10-15T04:26:10;98246.34;;;16.11;100.00
5595;BME280;1003;48.002;7.788;2022-10-15T04:28:37;98244.94;;;16.05;100.00
5595;BME280;1003;48.002;7.788;2022-10-15T04:31:06;98251.72;;;16.05;100.00
5595;BME280;1003;48.002;7.788;2022-10-15T04:33:33;98250.00;;;16.05;100.00
5595;BME280;1003;48.002;7.788;2022-10-15T04:36:02;98242.69;;;15.99;100.00
5595;BME280;1003;48.002;7.788;2022-10-15T04:38:30;98243.06;;;16.09;100.00
5595;BME280;1003;48.002;7.788;2022-10-15T04:41:00;98253.19;;;16.09;100.00
5595;BME280;1003;48.002;7.788;2022-10-15T04:43:27;98249.47;;;15.98;100.00
5595;BME280;1003;48.002;7.788;2022-10-15T04:45:56;98249.25;;;16.03;100.00
5595;BME280;1003;48.002;7.788;2022-10-15T04:48:27;98248.63;;;15.98;100.00
5595;BME280;1003;48.002;7.788;2022-10-15T04:51:02;98243.56;;;15.98;100.00
5595;BME280;1003;48.002;7.788;2022-10-15T04:53:30;98254.38;;;16.01;100.00
5595;BME280;1003;48.002;7.788;2022-10-15T04:56:00;98259.63;;;15.98;100.00
5595;BME280;1003;48.002;7.788;2022-10-15T04:58:30;98260.44;;;15.99;100.00
5595;BME280;1003;48.002;7.788;2022-10-15T05:01:00;98267.81;;;16.04;100.00
5595;BME280;1003;48.002;7.788;2022-10-15T05:03:29;98264.69;;;15.98;100.00
5595;BME280;1003;48.002;7.788;2022-10-15T05:05:59;98268.16;;;15.96;100.00
5595;BME280;1003;48.002;7.788;2022-10-15T05:08:27;98269.59;;;16.01;100.00
5595;BME280;1003;48.002;7.788;2022-10-15T05:10:59;98273.09;;;15.99;100.00
5595;BME280;1003;48.002;7.788;2022-10-15T05:13:26;98273.94;;;15.99;100.00
5595;BME280;1003;48.002;7.788;2022-10-15T05:15:53;98280.63;;;16.00;100.00
5595;BME280;1003;48.002;7.788;2022-10-15T05:18:20;98277.06;;;16.05;100.00
5595;BME280;1003;48.002;7.788;2022-10-15T05:20:48;98285.69;;;16.00;100.00
5595;BME280;1003;48.002;7.788;2022-10-15T05:23:15;98283.16;;;16.00;100.00
5595;BME280;1003;48.002;7.788;2022-10-15T05:25:42;98294.94;;;16.01;100.00
5595;BME280;1003;48.002;7.788;2022-10-15T05:28:09;98291.38;;;16.06;100.00
5595;BME280;1003;48.002;7.788;2022-10-15T05:30:36;98293.59;;;15.94;100.00
5595;BME280;1003;48.002;7.788;2022-10-15T05:33:03;98293.72;;;15.91;100.00
5595;BME280;1003;48.002;7.788;2022-10-15T05:35:30;98303.13;;;15.89;100.00
5595;BME280;1003;48.002;7.788;2022-10-15T05:37:59;98302.13;;;15.92;100.00
5595;BME280;1003;48.002;7.788;2022-10-15T05:40:26;98306.38;;;15.91;100.00
5595;BME280;1003;48.002;7.788;2022-10-15T05:42:53;98309.47;;;15.98;100.00
5595;BME280;1003;48.002;7.788;2022-10-15T05:45:20;98312.75;;;16.00;100.00
5595;BME280;1003;48.002;7.788;2022-10-15T05:47:47;98320.22;;;16.03;100.00
5595;BME280;1003;48.002;7.788;2022-10-15T05:50:14;98317.00;;;15.99;100.00
5595;BME280;1003;48.002;7.788;2022-10-15T05:52:41;98324.63;;;15.99;100.00
5595;BME280;1003;48.002;7.788;2022-10-15T05:55:09;98326.25;;;16.00;100.00
5595;BME280;1003;48.002;7.788;2022-10-15T05:57:36;98335.66;;;15.98;100.00
5595;BME280;1003;48.002;7.788;2022-10-15T06:00:05;98331.19;;;16.04;100.00
5595;BME280;1003;48.002;7.788;2022-10-15T06:02:33;98331.03;;;16.07;100.00
5595;BME280;1003;48.002;7.788;2022-10-15T06:05:00;98329.88;;;15.95;100.00
5595;BME280;1003;48.002;7.788;2022-10-15T06:07:27;98340.72;;;15.98;100.00
5595;BME280;1003;48.002;7.788;2022-10-15T06:09:54;98340.66;;;16.00;100.00
5595;BME280;1003;48.002;7.788;2022-10-15T06:12:22;98350.41;;;16.08;100.00
5595;BME280;1003;48.002;7.788;2022-10-15T06:14:49;98358.09;;;16.06;100.00
5595;BME280;1003;48.002;7.788;2022-10-15T06:17:16;98355.69;;;16.03;100.00
5595;BME280;1003;48.002;7.788;2022-10-15T06:19:43;98365.78;;;16.05;100.00
5595;BME280;1003;48.002;7.788;2022-10-15T06:22:10;98370.97;;;16.01;100.00
5595;BME280;1003;48.002;7.788;2022-10-15T06:24:37;98364.88;;;16.06;100.00
5595;BME280;1003;48.002;7.788;2022-10-15T06:27:04;98377.41;;;16.09;100.00
5595;BME280;1003;48.002;7.788;2022-10-15T06:29:33;98367.13;;;16.12;100.00
5595;BME280;1003;48.002;7.788;2022-10-15T06:32:00;98378.84;;;16.14;100.00
5595;BME280;1003;48.002;7.788;2022-10-15T06:34:27;98374.16;;;16.24;100.00
5595;BME280;1003;48.002;7.788;2022-10-15T06:36:54;98384.03;;;16.30;100.00
5595;BME280;1003;48.002;7.788;2022-10-15T06:39:21;98379.34;;;16.40;100.00
5595;BME280;1003;48.002;7.788;2022-10-15T06:41:48;98392.00;;;16.41;100.00
5595;BME280;1003;48.002;7.788;2022-10-15T06:44:15;98385.72;;;16.48;100.00
5595;BME280;1003;48.002;7.788;2022-10-15T06:46:43;98396.94;;;16.62;100.00
5595;BME280;1003;48.002;7.788;2022-10-15T06:49:11;98403.59;;;16.64;100.00
5595;BME280;1003;48.002;7.788;2022-10-15T06:51:38;98407.56;;;16.70;100.00
5595;BME280;1003;48.002;7.788;2022-10-15T06:54:05;98408.31;;;16.72;100.00
5595;BME280;1003;48.002;7.788;2022-10-15T06:56:32;98417.13;;;16.82;100.00
5595;BME280;1003;48.002;7.788;2022-10-15T06:58:59;98417.38;;;16.95;100.00
5595;BME280;1003;48.002;7.788;2022-10-15T07:01:26;98433.19;;;17.00;100.00
5595;BME280;1003;48.002;7.788;2022-10-15T07:03:54;98435.91;;;16.97;100.00
5595;BME280;1003;48.002;7.788;2022-10-15T07:06:21;98434.88;;;17.01;100.00
5595;BME280;1003;48.002;7.788;2022-10-15T07:08:48;98438.66;;;17.10;100.00
5595;BME280;1003;48.002;7.788;2022-10-15T07:11:15;98435.50;;;17.04;100.00
5595;BME280;1003;48.002;7.788;2022-10-15T07:13:43;98433.19;;;17.00;100.00
5595;BME280;1003;48.002;7.788;2022-10-15T07:16:11;98450.31;;;16.96;100.00
5595;BME280;1003;48.002;7.788;2022-10-15T07:18:39;98449.94;;;17.04;100.00
5595;BME280;1003;48.002;7.788;2022-10-15T07:21:08;98445.38;;;17.11;100.00
5595;BME280;1003;48.002;7.788;2022-10-15T07:23:35;98447.69;;;17.15;100.00
5595;BME280;1003;48.002;7.788;2022-10-15T07:26:03;98449.66;;;17.27;100.00
5595;BME280;1003;48.002;7.788;2022-10-15T07:28:30;98452.63;;;17.36;100.00
5595;BME280;1003;48.002;7.788;2022-10-15T07:31:01;98465.25;;;17.54;100.00
5595;BME280;1003;48.002;7.788;2022-10-15T07:33:28;98455.22;;;17.51;100.00
5595;BME280;1003;48.002;7.788;2022-10-15T07:35:55;98456.91;;;17.68;100.00
5595;BME280;1003;48.002;7.788;2022-10-15T07:38:24;98464.63;;;17.84;100.00
5595;BME280;1003;48.002;7.788;2022-10-15T07:40:51;98469.81;;;17.98;100.00
5595;BME280;1003;48.002;7.788;2022-10-15T07:43:18;98482.03;;;18.07;100.00
5595;BME280;1003;48.002;7.788;2022-10-15T07:45:47;98497.31;;;18.23;100.00
5595;BME280;1003;48.002;7.788;2022-10-15T07:48:15;98502.88;;;18.47;100.00
5595;BME280;1003;48.002;7.788;2022-10-15T07:50:42;98499.50;;;18.47;100.00
5595;BME280;1003;48.002;7.788;2022-10-15T07:53:10;98500.97;;;18.67;100.00
5595;BME280;1003;48.002;7.788;2022-10-15T07:55:38;98500.25;;;18.96;100.00
5595;BME280;1003;48.002;7.788;2022-10-15T07:58:05;98510.06;;;19.18;100.00
5595;BME280;1003;48.002;7.788;2022-10-15T08:00:33;98510.13;;;19.47;100.00
5595;BME280;1003;48.002;7.788;2022-10-15T08:03:00;98512.97;;;19.56;100.00
5595;BME280;1003;48.002;7.788;2022-10-15T08:05:27;98523.84;;;19.74;100.00
5595;BME280;1003;48.002;7.788;2022-10-15T08:07:54;98532.25;;;19.90;100.00
5595;BME280;1003;48.002;7.788;2022-10-15T08:10:21;98512.50;;;20.23;100.00
5595;BME280;1003;48.002;7.788;2022-10-15T08:12:50;98531.44;;;20.33;100.00
5595;BME280;1003;48.002;7.788;2022-10-15T08:15:18;98527.97;;;20.34;100.00
5595;BME280;1003;48.002;7.788;2022-10-15T08:17:45;98517.06;;;20.46;100.00
5595;BME280;1003;48.002;7.788;2022-10-15T08:20:12;98541.53;;;20.77;100.00
5595;BME280;1003;48.002;7.788;2022-10-15T08:22:39;98535.28;;;20.54;100.00
5595;BME280;1003;48.002;7.788;2022-10-15T08:25:07;98539.94;;;20.48;100.00
5595;BME280;1003;48.002;7.788;2022-10-15T08:27:34;98536.19;;;20.25;100.00
5595;BME280;1003;48.002;7.788;2022-10-15T08:30:04;98525.53;;;20.04;100.00
5595;BME280;1003;48.002;7.788;2022-10-15T08:32:31;98531.06;;;19.96;100.00
5595;BME280;1003;48.002;7.788;2022-10-15T08:34:59;98538.81;;;19.80;100.00
5595;BME280;1003;48.002;7.788;2022-10-15T08:37:25;98524.25;;;19.82;100.00
5595;BME280;1003;48.002;7.788;2022-10-15T08:39:53;98528.81;;;19.91;100.00
5595;BME280;1003;48.002;7.788;2022-10-15T08:42:30;98530.53;;;19.77;100.00
5595;BME280;1003;48.002;7.788;2022-10-15T08:45:03;98530.63;;;19.75;100.00
5595;BME280;1003;48.002;7.788;2022-10-15T08:47:39;98543.00;;;19.81;100.00
5595;BME280;1003;48.002;7.788;2022-10-15T08:50:20;98537.34;;;19.76;100.00
5595;BME280;1003;48.002;7.788;2022-10-15T08:52:52;98534.72;;;19.78;100.00
5595;BME280;1003;48.002;7.788;2022-10-15T08:55:21;98528.84;;;19.61;100.00
5595;BME280;1003;48.002;7.788;2022-10-15T08:57:57;98534.06;;;19.74;100.00
5595;BME280;1003;48.002;7.788;2022-10-15T09:00:35;98538.19;;;19.77;100.00
5595;BME280;1003;48.002;7.788;2022-10-15T09:03:12;98536.63;;;19.58;100.00
5595;BME280;1003;48.002;7.788;2022-10-15T09:05:52;98522.31;;;19.72;100.00
5595;BME280;1003;48.002;7.788;2022-10-15T09:08:28;98532.81;;;19.81;100.00
5595;BME280;1003;48.002;7.788;2022-10-15T09:11:00;98527.78;;;19.80;100.00
5595;BME280;1003;48.002;7.788;2022-10-15T09:13:36;98530.06;;;19.70;100.00
5595;BME280;1003;48.002;7.788;2022-10-15T09:16:14;98532.72;;;19.83;100.00
5595;BME280;1003;48.002;7.788;2022-10-15T09:18:46;98537.91;;;19.96;100.00
5595;BME280;1003;48.002;7.788;2022-10-15T09:21:15;98535.28;;;19.97;100.00
5595;BME280;1003;48.002;7.788;2022-10-15T09:23:43;98529.09;;;19.87;100.00
5595;BME280;1003;48.002;7.788;2022-10-15T09:26:25;98534.47;;;19.97;100.00
5595;BME280;1003;48.002;7.788;2022-10-15T09:29:04;98534.47;;;19.97;100.00
5595;BME280;1003;48.002;7.788;2022-10-15T09:31:44;98542.22;;;20.24;100.00
5595;BME280;1003;48.002;7.788;2022-10-15T09:34:20;98539.03;;;20.20;100.00
5595;BME280;1003;48.002;7.788;2022-10-15T09:36:53;98538.38;;;20.31;100.00
5595;BME280;1003;48.002;7.788;2022-10-15T09:39:40;98548.41;;;20.48;100.00
5595;BME280;1003;48.002;7.788;2022-10-15T09:42:26;98543.94;;;20.52;100.00
5595;BME280;1003;48.002;7.788;2022-10-15T09:44:59;98538.38;;;20.59;100.00
5595;BME280;1003;48.002;7.788;2022-10-15T09:47:32;98547.47;;;20.63;100.00
5595;BME280;1003;48.002;7.788;2022-10-15T09:50:00;98552.59;;;20.63;100.00
5595;BME280;1003;48.002;7.788;2022-10-15T09:52:49;98548.13;;;20.53;100.00
5595;BME280;1003;48.002;7.788;2022-10-15T09:55:34;98554.88;;;20.11;100.00
5595;BME280;1003;48.002;7.788;2022-10-15T09:58:09;98563.59;;;20.07;100.00
5595;BME280;1003;48.002;7.788;2022-10-15T10:00:58;98562.59;;;19.95;100.00
5595;BME280;1003;48.002;7.788;2022-10-15T10:03:29;98552.03;;;19.87;100.00
5595;BME280;1003;48.002;7.788;2022-10-15T10:06:06;98557.31;;;19.54;100.00
5595;BME280;1003;48.002;7.788;2022-10-15T10:08:38;98551.38;;;19.53;100.00
5595;BME280;1003;48.002;7.788;2022-10-15T10:11:10;98543.72;;;19.53;100.00
5595;BME280;1003;48.002;7.788;2022-10-15T10:13:44;98547.75;;;19.57;100.00
5595;BME280;1003;48.002;7.788;2022-10-15T10:16:14;98538.59;;;19.69;100.00
5595;BME280;1003;48.002;7.788;2022-10-15T10:18:43;98561.31;;;19.88;100.00
5595;BME280;1003;48.002;7.788;2022-10-15T10:21:24;98559.31;;;19.93;100.00
5595;BME280;1003;48.002;7.788;2022-10-15T10:23:54;98565.25;;;19.93;100.00
5595;BME280;1003;48.002;7.788;2022-10-15T10:26:22;98568.72;;;19.92;100.00
5595;BME280;1003;48.002;7.788;2022-10-15T10:28:52;98577.94;;;20.09;100.00
5595;BME280;1003;48.002;7.788;2022-10-15T10:31:28;98574.63;;;19.93;100.00
5595;BME280;1003;48.002;7.788;2022-10-15T10:34:01;98573.53;;;19.83;100.00
5595;BME280;1003;48.002;7.788;2022-10-15T10:36:32;98564.84;;;19.85;100.00
5595;BME280;1003;48.002;7.788;2022-10-15T10:39:23;98568.25;;;19.86;100.00
5595;BME280;1003;48.002;7.788;2022-10-15T10:41:53;98575.16;;;19.70;100.00
5595;BME280;1003;48.002;7.788;2022-10-15T10:44:27;98558.75;;;19.74;100.00
5595;BME280;1003;48.002;7.788;2022-10-15T10:47:14;98563.03;;;19.73;100.00
5595;BME280;1003;48.002;7.788;2022-10-15T10:49:46;98573.56;;;19.67;100.00
5595;BME280;1003;48.002;7.788;2022-10-15T10:52:24;98563.78;;;19.75;100.00
5595;BME280;1003;48.002;7.788;2022-10-15T10:54:59;98566.78;;;19.82;100.00
5595;BME280;1003;48.002;7.788;2022-10-15T10:57:42;98563.59;;;20.07;100.00
5595;BME280;1003;48.002;7.788;2022-10-15T11:00:16;98559.78;;;20.28;100.00
5595;BME280;1003;48.002;7.788;2022-10-15T11:02:45;98563.34;;;20.40;100.00
5595;BME280;1003;48.002;7.788;2022-10-15T11:05:21;98576.50;;;20.48;100.00
5595;BME280;1003;48.002;7.788;2022-10-15T11:08:00;98571.94;;;20.53;100.00
5595;BME280;1003;48.002;7.788;2022-10-15T11:10:36;98583.22;;;20.49;100.00
5595;BME280;1003;48.002;7.788;2022-10-15T11:13:24;98572.94;;;20.51;100.00
5595;BME280;1003;48.002;7.788;2022-10-15T11:16:00;98564.19;;;20.40;100.00
5595;BME280;1003;48.002;7.788;2022-10-15T11:18:58;98561.34;;;20.45;100.00
5595;BME280;1003;48.002;7.788;2022-10-15T11:21:44;98555.53;;;20.57;100.00
5595;BME280;1003;48.002;7.788;2022-10-15T11:24:25;98552.91;;;20.71;100.00
5595;BME280;1003;48.002;7.788;2022-10-15T11:27:16;98547.34;;;20.93;100.00
5595;BME280;1003;48.002;7.788;2022-10-15T11:29:55;98547.16;;;21.09;100.00
5595;BME280;1003;48.002;7.788;2022-10-15T11:32:43;98542.97;;;21.35;100.00
5595;BME280;1003;48.002;7.788;2022-10-15T11:35:30;98533.31;;;21.79;100.00
5595;BME280;1003;48.002;7.788;2022-10-15T11:38:18;98543.25;;;21.96;100.00
5595;BME280;1003;48.002;7.788;2022-10-15T11:41:05;98547.94;;;21.89;100.00
5595;BME280;1003;48.002;7.788;2022-10-15T11:43:54;98552.03;;;21.66;97.04
5595;BME280;1003;48.002;7.788;2022-10-15T11:46:29;98548.38;;;21.04;98.71
5595;BME280;1003;48.002;7.788;2022-10-15T11:49:18;98549.91;;;21.06;100.00
5595;BME280;1003;48.002;7.788;2022-10-15T11:52:11;98559.22;;;20.80;100.00
5595;BME280;1003;48.002;7.788;2022-10-15T11:54:46;98560.34;;;20.62;100.00
5595;BME280;1003;48.002;7.788;2022-10-15T11:57:18;98564.34;;;20.37;100.00
5595;BME280;1003;48.002;7.788;2022-10-15T11:59:54;98558.88;;;20.43;100.00
5595;BME280;1003;48.002;7.788;2022-10-15T12:02:30;98556.88;;;20.49;100.00
5595;BME280;1003;48.002;7.788;2022-10-15T12:05:04;98562.00;;;20.49;100.00
5595;BME280;1003;48.002;7.788;2022-10-15T12:07:38;98558.44;;;20.37;100.00
5595;BME280;1003;48.002;7.788;2022-10-15T12:10:31;98559.50;;;20.33;100.00
5595;BME280;1003;48.002;7.788;2022-10-15T12:13:14;98553.53;;;20.48;100.00
5595;BME280;1003;48.002;7.788;2022-10-15T12:15:54;98547.81;;;20.71;100.00
5595;BME280;1003;48.002;7.788;2022-10-15T12:18:36;98543.78;;;20.82;100.00
5595;BME280;1003;48.002;7.788;2022-10-15T12:21:36;98553.16;;;20.95;100.00
5595;BME280;1003;48.002;7.788;2022-10-15T12:27:30;98545.25;;;20.86;100.00
5595;BME280;1003;48.002;7.788;2022-10-15T12:30:28;98547.31;;;20.52;100.00
5595;BME280;1003;48.002;7.788;2022-10-15T12:33:00;98544.22;;;20.47;100.00
5595;BME280;1003;48.002;7.788;2022-10-15T12:35:35;98540.19;;;20.43;100.00
5595;BME280;1003;48.002;7.788;2022-10-15T12:38:26;98531.53;;;20.31;100.00
5595;BME280;1003;48.002;7.788;2022-10-15T12:40:59;98535.28;;;20.40;100.00
5595;BME280;1003;48.002;7.788;2022-10-15T12:43:30;98533.47;;;20.56;100.00
5595;BME280;1003;48.002;7.788;2022-10-15T12:46:01;98525.75;;;20.70;100.00
5595;BME280;1003;48.002;7.788;2022-10-15T12:48:36;98517.94;;;20.86;100.00
5595;BME280;1003;48.002;7.788;2022-10-15T12:51:37;98513.03;;;21.10;100.00
5595;BME280;1003;48.002;7.788;2022-10-15T12:54:34;98512.16;;;20.97;100.00
5595;BME280;1003;48.002;7.788;2022-10-15T13:00:41;98520.88;;;20.53;100.00
5595;BME280;1003;48.002;7.788;2022-10-15T13:03:38;98519.59;;;20.32;100.00
5595;BME280;1003;48.002;7.788;2022-10-15T13:06:29;98523.97;;;20.15;100.00
5595;BME280;1003;48.002;7.788;2022-10-15T13:09:18;98523.97;;;19.87;100.00
5595;BME280;1003;48.002;7.788;2022-10-15T13:11:49;98515.88;;;19.80;100.00
5595;BME280;1003;48.002;7.788;2022-10-15T13:14:32;98511.09;;;19.74;100.00
5595;BME280;1003;48.002;7.788;2022-10-15T13:17:13;98516.16;;;19.76;100.00
5595;BME280;1003;48.002;7.788;2022-10-15T13:19:47;98525.78;;;19.71;100.00
5595;BME280;1003;48.002;7.788;2022-10-15T13:22:25;98524.34;;;19.81;100.00
5595;BME280;1003;48.002;7.788;2022-10-15T13:24:53;98516.50;;;19.70;100.00
5595;BME280;1003;48.002;7.788;2022-10-15T13:27:26;98503.91;;;19.66;100.00
5595;BME280;1003;48.002;7.788;2022-10-15T13:29:58;98505.94;;;19.76;100.00
5595;BME280;1003;48.002;7.788;2022-10-15T13:32:30;98504.75;;;19.81;100.00
5595;BME280;1003;48.002;7.788;2022-10-15T13:34:59;98506.69;;;19.92;100.00
5595;BME280;1003;48.002;7.788;2022-10-15T13:37:33;98500.75;;;20.06;100.00
5595;BME280;1003;48.002;7.788;2022-10-15T13:40:03;98508.41;;;20.06;100.00
5595;BME280;1003;48.002;7.788;2022-10-15T13:42:30;98500.84;;;20.18;100.00
5595;BME280;1003;48.002;7.788;2022-10-15T13:45:01;98508.47;;;20.33;100.00